Ban Chae Son, Thailand

8:25 PM +07 on June 29, 2017 (GMT +0700)
Chiang Mai International | | Change Station

Elev 1030 ft 18.78 °N, 98.98 °E | Updated 25 minutes ago

Rain
Rain
81 °F
Feels Like 86 °F
N
4
Wind Variable Wind from SSE

Today
High -- | Low -- °F
--% Chance of Precip.
Yesterday
High -- | Low -- °F
Precip. -- in
Pressure 29.77 in
Visibility 6.2 miles
Clouds Mostly Cloudy 3500 ft
Heat Index 86 °F
Dew Point 75 °F
Humidity 84%
Rainfall 0.00 in
Snow Depth Not available.
5:47 AM 7:02 PM
Waxing Crescent, 35% visible
METAR VTCC 291300Z 15003KT 9999 -RA BKN035 27/24 Q1008 NOSIG
Pressure 29.77 in
Visibility 6.2 miles
Clouds Mostly Cloudy 3500 ft
Heat Index 86 °F
Dew Point 75 °F
Humidity 84%
Rainfall 0.00 in
Snow Depth Not available.
5:47 AM 7:02 PM
Waxing Crescent, 35% visible
METAR VTCC 291300Z 15003KT 9999 -RA BKN035 27/24 Q1008 NOSIG

Get Severe Weather Alerts

Thanks for signing up!

Be on the lookout for a verification email in your inbox.

You'll start receiving the daily forecast at 6 AM.

×

10-Day Weather Forecast

No radar image for this location.
×

Almanac

Astronomy

Jun. 29, 2017 Rise Set
Actual Time
Civil Twilight
Nautical Twilight
Astronomical Twilight
Moon
Length of Visible Light
Length of Day
Tomorrow will be .
, % of the Moon is Illuminated

Today's Extremes

Country Highs Country Lows

Community

WunderPhotos

Category 6

Welcome to Category 6. This is the collective home for Weather Underground's featured writeups by Dr. Jeff Masters (right), Bob Henson (left), Chris Burt, and other regular contributors.

Nearby

Air Quality

  Air Quality AQ Index Pollutant
Not available.

Snow Depth

Station Depth Elevation

Earthquake Activity

City Distance Mag. Time & Date
Minimum magnitude displayed is 2.5.

Coastal Water Temperatures

Place Temperature

Stations

Nearby Weather Stations

Station Location Temp. Windchill Dew Point Humidity Wind Precip. Elev Updated Type